createdAt,value
2017-10-16T00:00:19.070Z,11.18
2017-10-16T00:02:53.423Z,12.00
2017-10-16T00:05:27.923Z,12.35
2017-10-16T00:08:02.252Z,12.43
2017-10-16T00:10:36.761Z,14.60
2017-10-16T00:13:11.926Z,13.57
2017-10-16T00:15:47.113Z,12.10
2017-10-16T00:18:21.508Z,11.52
2017-10-16T00:20:55.892Z,11.95
2017-10-16T00:23:30.267Z,11.60
2017-10-16T00:26:04.692Z,11.93
2017-10-16T00:28:39.144Z,12.18
2017-10-16T00:31:13.532Z,15.30
2017-10-16T00:33:48.016Z,13.25
2017-10-16T00:36:22.569Z,11.93
2017-10-16T00:38:56.919Z,16.40
2017-10-16T00:41:31.247Z,14.20
2017-10-16T00:44:05.576Z,12.95
2017-10-16T00:46:40.000Z,14.07
2017-10-16T00:49:14.548Z,11.88
2017-10-16T00:51:49.373Z,13.60
2017-10-16T00:54:23.731Z,13.27
2017-10-16T00:56:59.028Z,13.55
2017-10-16T00:59:34.381Z,13.35
2017-10-16T01:02:08.888Z,12.60
2017-10-16T01:04:43.419Z,14.40
2017-10-16T01:07:17.805Z,14.32
2017-10-16T01:09:52.339Z,14.48
2017-10-16T01:12:26.678Z,13.88
2017-10-16T01:15:01.888Z,16.15
2017-10-16T01:17:36.453Z,14.45
2017-10-16T01:20:10.796Z,15.90
2017-10-16T01:22:45.184Z,14.90
2017-10-16T01:25:19.641Z,14.25
2017-10-16T01:27:53.976Z,17.30
2017-10-16T01:30:28.422Z,15.23
2017-10-16T01:33:02.812Z,15.48
2017-10-16T01:35:37.108Z,16.08
2017-10-16T01:38:11.577Z,17.05
2017-10-16T01:40:45.996Z,21.48
2017-10-16T01:43:20.416Z,16.42
2017-10-16T01:45:54.925Z,14.65
2017-10-16T01:48:29.363Z,16.70
2017-10-16T01:51:04.589Z,17.55
2017-10-16T01:53:39.038Z,15.98
2017-10-16T01:56:13.364Z,20.05
2017-10-16T01:58:47.879Z,16.98
2017-10-16T02:01:22.298Z,16.42
2017-10-16T02:03:56.783Z,17.58
2017-10-16T02:06:31.258Z,16.08
2017-10-16T02:09:05.728Z,16.85
2017-10-16T02:11:40.158Z,17.55
2017-10-16T02:14:14.592Z,19.70
2017-10-16T02:16:49.120Z,17.37
2017-10-16T02:19:24.412Z,19.23
2017-10-16T02:21:58.984Z,16.23
2017-10-16T02:24:33.497Z,21.60
2017-10-16T02:27:08.232Z,19.80
2017-10-16T02:29:42.704Z,20.62
2017-10-16T02:32:17.020Z,17.90
2017-10-16T02:34:51.468Z,17.90
2017-10-16T02:37:26.600Z,18.23
2017-10-16T02:40:00.986Z,20.05
2017-10-16T02:42:36.084Z,17.10
2017-10-16T02:45:10.484Z,20.60
2017-10-16T02:47:44.910Z,19.52
2017-10-16T02:50:20.158Z,19.95
2017-10-16T02:52:54.567Z,22.70
2017-10-16T02:55:28.995Z,21.60
2017-10-16T02:58:03.378Z,19.73
2017-10-16T03:00:37.811Z,20.67
2017-10-16T03:03:12.163Z,20.50
2017-10-16T03:05:46.638Z,30.33
2017-10-16T03:08:21.234Z,21.50
2017-10-16T03:10:55.544Z,21.75
2017-10-16T03:13:30.151Z,22.42
2017-10-16T03:16:04.576Z,21.08
2017-10-16T03:18:39.344Z,20.30
2017-10-16T03:21:14.725Z,21.52
2017-10-16T03:23:49.240Z,23.27
2017-10-16T03:26:23.747Z,27.80
2017-10-16T03:28:58.312Z,24.92
2017-10-16T03:31:32.795Z,29.70
2017-10-16T03:34:07.743Z,21.73
2017-10-16T03:36:42.213Z,23.75
2017-10-16T03:39:16.578Z,23.70
2017-10-16T03:41:51.040Z,25.23
2017-10-16T03:44:26.146Z,26.70
2017-10-16T03:47:00.623Z,25.85
2017-10-16T03:49:35.816Z,23.77
2017-10-16T03:52:10.176Z,23.42
2017-10-16T03:54:44.649Z,26.98
2017-10-16T03:57:19.142Z,25.67
2017-10-16T03:59:53.724Z,25.15
2017-10-16T04:02:28.181Z,28.55
2017-10-16T04:05:02.579Z,26.55
2017-10-16T04:07:37.821Z,25.83
2017-10-16T04:10:12.225Z,24.37
2017-10-16T04:12:46.783Z,26.33
2017-10-16T04:15:21.328Z,26.62
2017-10-16T04:17:55.772Z,29.73
2017-10-16T04:20:30.326Z,26.48
2017-10-16T04:23:04.751Z,26.50
2017-10-16T04:25:39.099Z,27.45
2017-10-16T04:28:13.621Z,28.38
2017-10-16T04:30:48.056Z,25.52
2017-10-16T04:33:22.703Z,28.42
2017-10-16T04:35:58.749Z,27.70
2017-10-16T04:38:33.203Z,27.73
2017-10-16T04:41:07.661Z,27.70
2017-10-16T04:43:42.103Z,29.70
2017-10-16T04:46:16.600Z,33.55
2017-10-16T04:48:50.957Z,28.40
2017-10-16T04:51:25.446Z,29.95
2017-10-16T04:53:59.961Z,28.05
2017-10-16T04:56:34.583Z,28.83
2017-10-16T04:59:09.684Z,28.73
2017-10-16T05:01:44.136Z,33.15
2017-10-16T05:04:19.342Z,32.47
2017-10-16T05:06:53.808Z,30.27
2017-10-16T05:09:28.291Z,31.52
2017-10-16T05:12:02.611Z,34.33
2017-10-16T05:14:36.980Z,30.00
2017-10-16T05:17:12.290Z,30.33
2017-10-16T05:19:46.732Z,32.63
2017-10-16T05:22:21.088Z,30.40
2017-10-16T05:24:56.255Z,32.70
2017-10-16T05:27:30.597Z,33.67
2017-10-16T05:30:05.742Z,32.65
2017-10-16T05:32:40.216Z,27.92
2017-10-16T05:35:14.569Z,31.52
2017-10-16T05:37:49.051Z,38.15
2017-10-16T05:40:23.435Z,39.00
2017-10-16T05:42:57.903Z,35.28
2017-10-16T05:45:32.431Z,38.33
2017-10-16T05:48:06.855Z,33.47
2017-10-16T05:50:41.357Z,29.77
2017-10-16T05:53:15.768Z,32.50
2017-10-16T05:55:50.091Z,38.38
2017-10-16T05:58:24.532Z,36.90
2017-10-16T06:00:58.863Z,39.60
2017-10-16T06:03:33.194Z,33.58
2017-10-16T06:06:07.541Z,34.58
2017-10-16T06:08:42.070Z,36.95
2017-10-16T06:11:16.500Z,34.05
2017-10-16T06:13:50.999Z,40.17
2017-10-16T06:16:25.501Z,39.20
2017-10-16T06:18:59.856Z,40.47
2017-10-16T06:21:34.263Z,39.60
2017-10-16T06:24:08.827Z,33.10
2017-10-16T06:26:43.150Z,35.38
2017-10-16T06:29:17.468Z,41.28
2017-10-16T06:31:51.921Z,37.70
2017-10-16T06:34:26.388Z,39.75
2017-10-16T06:37:00.799Z,36.67
2017-10-16T06:39:35.943Z,39.17
2017-10-16T06:42:10.277Z,35.60
2017-10-16T06:44:44.784Z,38.45
2017-10-16T06:47:19.207Z,41.08
2017-10-16T06:49:53.694Z,41.28
2017-10-16T06:52:28.122Z,36.80
2017-10-16T06:55:02.576Z,45.08
2017-10-16T06:57:37.069Z,38.20
2017-10-16T07:00:11.542Z,36.90
2017-10-16T07:02:45.999Z,35.95
2017-10-16T07:05:20.477Z,35.40
2017-10-16T07:07:54.952Z,40.33
2017-10-16T07:10:29.317Z,34.88
2017-10-16T07:13:03.728Z,36.05
2017-10-16T07:15:38.111Z,35.33
2017-10-16T07:18:12.583Z,33.45
2017-10-16T07:20:46.982Z,33.58
2017-10-16T07:23:22.194Z,33.42
2017-10-16T07:25:56.564Z,34.20
2017-10-16T07:28:31.057Z,41.28
2017-10-16T07:31:05.429Z,37.05
2017-10-16T07:33:40.484Z,40.15
2017-10-16T07:36:14.912Z,36.03
2017-10-16T07:38:49.340Z,36.53
2017-10-16T07:41:23.809Z,37.67
2017-10-16T07:43:58.224Z,34.85
2017-10-16T07:46:33.445Z,37.83
2017-10-16T07:49:08.620Z,39.13
2017-10-16T07:51:43.011Z,34.05
2017-10-16T07:54:17.472Z,35.47
2017-10-16T07:56:52.126Z,35.83
2017-10-16T07:59:26.575Z,34.83
2017-10-16T08:02:01.109Z,39.15
2017-10-16T08:04:35.581Z,33.65
2017-10-16T08:07:09.971Z,36.08
2017-10-16T08:09:44.440Z,33.83
2017-10-16T08:12:18.912Z,39.53
2017-10-16T08:14:54.191Z,34.70
2017-10-16T08:17:28.657Z,33.78
2017-10-16T08:20:03.032Z,37.45
2017-10-16T08:22:37.544Z,36.47
2017-10-16T08:25:12.056Z,37.45
2017-10-16T08:27:46.564Z,33.97
2017-10-16T08:30:20.993Z,34.85
2017-10-16T08:32:56.212Z,34.85
2017-10-16T08:35:30.592Z,35.08
2017-10-16T08:38:04.934Z,35.10
2017-10-16T08:40:39.441Z,35.63
2017-10-16T08:43:14.688Z,37.17
2017-10-16T08:45:49.879Z,37.30
2017-10-16T08:48:24.232Z,37.80
2017-10-16T08:50:58.699Z,35.88
2017-10-16T08:53:33.936Z,37.60
2017-10-16T08:56:08.384Z,34.20
2017-10-16T08:58:42.903Z,34.55
2017-10-16T09:01:18.109Z,40.05
2017-10-16T09:03:52.595Z,37.33
2017-10-16T09:06:27.007Z,37.00
2017-10-16T09:09:01.512Z,37.70
2017-10-16T09:11:36.024Z,39.20
2017-10-16T09:14:10.365Z,35.90
2017-10-16T09:16:44.825Z,35.70
2017-10-16T09:19:19.131Z,40.35
2017-10-16T09:21:54.351Z,38.88
2017-10-16T09:24:29.658Z,42.42
2017-10-16T09:27:04.072Z,38.70
2017-10-16T09:29:38.367Z,38.10
2017-10-16T09:32:12.912Z,35.42
2017-10-16T09:34:47.997Z,38.13
2017-10-16T09:37:22.404Z,37.10
2017-10-16T09:39:56.896Z,37.10
2017-10-16T09:42:31.306Z,38.95
2017-10-16T09:45:05.848Z,41.40
2017-10-16T09:47:40.196Z,35.03
2017-10-16T09:50:14.536Z,38.50
2017-10-16T09:52:49.020Z,34.60
2017-10-16T09:55:23.420Z,39.38
2017-10-16T09:57:57.912Z,35.90
2017-10-16T10:00:32.400Z,35.87
2017-10-16T10:03:07.564Z,35.58
2017-10-16T10:05:41.928Z,35.55
2017-10-16T10:08:16.302Z,40.03
2017-10-16T10:10:51.559Z,37.03
2017-10-16T10:13:26.141Z,37.30
2017-10-16T10:16:00.703Z,35.77
2017-10-16T10:18:35.066Z,34.53
2017-10-16T10:21:09.438Z,34.27
2017-10-16T10:23:43.801Z,36.17
2017-10-16T10:26:18.369Z,36.63
2017-10-16T10:28:52.803Z,33.30
2017-10-16T10:31:27.211Z,37.33
2017-10-16T10:34:01.586Z,33.57
2017-10-16T10:36:35.992Z,40.03
2017-10-16T10:39:10.447Z,39.63
2017-10-16T10:41:44.811Z,35.87
2017-10-16T10:44:19.989Z,36.95
2017-10-16T10:46:54.652Z,38.53
2017-10-16T10:49:29.047Z,38.23
2017-10-16T10:52:03.673Z,35.93
2017-10-16T10:54:38.070Z,36.17
2017-10-16T10:57:12.543Z,36.78
2017-10-16T10:59:47.055Z,37.13
2017-10-16T11:02:21.674Z,40.27
2017-10-16T11:04:56.154Z,44.25
2017-10-16T11:07:30.472Z,34.83
2017-10-16T11:10:05.605Z,37.00
2017-10-16T11:12:40.079Z,35.47
2017-10-16T11:15:15.357Z,33.53
2017-10-16T11:17:49.768Z,37.77
2017-10-16T11:20:24.245Z,37.80
2017-10-16T11:22:59.140Z,37.07
2017-10-16T11:25:33.599Z,33.50
2017-10-16T11:28:08.114Z,34.53
2017-10-16T11:30:43.257Z,40.70
2017-10-16T11:33:17.674Z,35.47
2017-10-16T11:35:53.595Z,38.80
2017-10-16T11:38:28.069Z,34.43
2017-10-16T11:41:02.547Z,35.13
2017-10-16T11:43:37.005Z,32.67
2017-10-16T11:46:11.528Z,31.63
2017-10-16T11:48:46.009Z,36.47
2017-10-16T11:51:21.043Z,34.37
2017-10-16T11:53:55.392Z,34.43
2017-10-16T11:56:29.874Z,36.50
2017-10-16T11:59:04.349Z,35.63
2017-10-16T12:01:38.777Z,35.00
2017-10-16T12:04:13.220Z,31.67
2017-10-16T12:06:47.578Z,35.23
2017-10-16T12:09:21.900Z,33.43
2017-10-16T12:11:56.225Z,30.90
2017-10-16T12:14:30.544Z,31.07
2017-10-16T12:17:05.976Z,31.63
2017-10-16T12:19:40.288Z,32.23
2017-10-16T12:22:14.690Z,31.70
2017-10-16T12:24:49.044Z,30.73
2017-10-16T12:27:23.401Z,36.77
2017-10-16T12:29:57.931Z,32.80
2017-10-16T12:32:32.441Z,32.40
2017-10-16T12:35:06.804Z,31.50
2017-10-16T12:37:41.253Z,31.00
2017-10-16T12:40:15.696Z,35.03
2017-10-16T12:42:50.059Z,34.03
2017-10-16T12:45:24.489Z,30.90
2017-10-16T12:47:59.062Z,34.23
2017-10-16T12:50:33.404Z,34.17
2017-10-16T12:53:08.369Z,36.60
2017-10-16T12:55:42.890Z,36.00
2017-10-16T12:58:17.244Z,34.03
2017-10-16T13:00:51.636Z,32.67
2017-10-16T13:03:27.865Z,32.30
2017-10-16T13:06:02.321Z,36.53
2017-10-16T13:08:36.747Z,32.93
2017-10-16T13:11:11.820Z,33.37
2017-10-16T13:13:46.231Z,31.63
2017-10-16T13:16:20.680Z,35.33
2017-10-16T13:18:55.101Z,33.37
2017-10-16T13:21:29.473Z,33.53
2017-10-16T13:24:03.928Z,34.40
2017-10-16T13:26:38.290Z,33.37
2017-10-16T13:29:12.632Z,32.07
2017-10-16T13:31:47.152Z,33.90
2017-10-16T13:34:22.516Z,32.50
2017-10-16T13:36:57.151Z,33.43
2017-10-16T13:39:31.603Z,31.27
2017-10-16T13:42:06.049Z,34.00
2017-10-16T13:44:40.516Z,32.37
2017-10-16T13:47:14.989Z,32.63
2017-10-16T13:49:49.443Z,35.27
2017-10-16T13:52:23.817Z,40.20
2017-10-16T13:54:58.304Z,35.57
2017-10-16T13:57:32.908Z,36.93
2017-10-16T14:00:07.403Z,39.30
2017-10-16T14:02:41.930Z,36.17
2017-10-16T14:05:16.288Z,35.43
2017-10-16T14:07:50.799Z,34.80
2017-10-16T14:10:25.283Z,35.63
2017-10-16T14:12:59.757Z,32.40
2017-10-16T14:15:34.296Z,34.70
2017-10-16T14:18:08.684Z,32.00
2017-10-16T14:20:43.111Z,32.00
2017-10-16T14:23:17.605Z,35.27
2017-10-16T14:25:52.112Z,32.20
2017-10-16T14:28:26.595Z,33.17
2017-10-16T14:31:01.011Z,32.63
2017-10-16T14:33:35.559Z,33.87
2017-10-16T14:36:10.170Z,32.73
2017-10-16T14:38:44.522Z,33.57
2017-10-16T14:41:18.978Z,32.77
2017-10-16T14:43:53.332Z,32.90
2017-10-16T14:46:27.641Z,32.63
2017-10-16T14:49:02.884Z,33.23
2017-10-16T14:51:37.379Z,33.03
2017-10-16T14:54:12.516Z,34.37
2017-10-16T14:56:47.014Z,32.53
2017-10-16T14:59:21.319Z,33.17
2017-10-16T15:01:55.684Z,35.90
2017-10-16T15:04:30.244Z,33.33
2017-10-16T15:07:04.559Z,35.33
2017-10-16T15:09:38.959Z,35.50
2017-10-16T15:12:14.184Z,35.87
2017-10-16T15:14:48.648Z,31.03
2017-10-16T15:17:23.000Z,32.97
2017-10-16T15:19:57.496Z,35.83
2017-10-16T15:22:31.941Z,33.93
2017-10-16T15:25:06.316Z,32.90
2017-10-16T15:27:40.708Z,33.50
2017-10-16T15:30:15.123Z,32.50
2017-10-16T15:32:49.508Z,31.83
2017-10-16T15:35:23.824Z,34.27
2017-10-16T15:37:59.010Z,33.63
2017-10-16T15:40:33.490Z,31.80
2017-10-16T15:43:08.031Z,35.00
2017-10-16T15:45:42.349Z,33.60
2017-10-16T15:48:16.808Z,39.10
2017-10-16T15:50:51.937Z,42.23
2017-10-16T15:53:27.376Z,33.07
2017-10-16T15:56:01.749Z,33.97
2017-10-16T15:58:36.197Z,33.10
2017-10-16T16:01:11.323Z,40.53
2017-10-16T16:03:46.648Z,37.00
2017-10-16T16:06:23.296Z,36.87
2017-10-16T16:08:58.356Z,37.43
2017-10-16T16:11:32.872Z,34.10
2017-10-16T16:14:07.977Z,36.67
2017-10-16T16:16:42.404Z,36.40
2017-10-16T16:19:16.947Z,44.30
2017-10-16T16:21:51.303Z,36.43
2017-10-16T16:24:25.651Z,33.77
2017-10-16T16:27:00.187Z,39.80
2017-10-16T16:29:34.547Z,38.70
2017-10-16T16:32:09.062Z,38.77
2017-10-16T16:34:43.502Z,42.97
2017-10-16T16:37:18.031Z,39.40
2017-10-16T16:39:52.504Z,37.03
2017-10-16T16:42:26.846Z,38.58
2017-10-16T16:45:01.936Z,38.58
2017-10-16T16:47:36.372Z,39.90
2017-10-16T16:50:10.797Z,39.30
2017-10-16T16:52:45.183Z,39.58
2017-10-16T16:55:19.628Z,42.40
2017-10-16T16:57:53.978Z,37.30
2017-10-16T17:00:28.416Z,38.85
2017-10-16T17:03:02.769Z,45.20
2017-10-16T17:05:37.213Z,43.93
2017-10-16T17:08:11.543Z,40.67
2017-10-16T17:10:45.985Z,41.53
2017-10-16T17:13:20.578Z,42.13
2017-10-16T17:15:54.869Z,41.65
2017-10-16T17:18:29.200Z,44.40
2017-10-16T17:21:03.730Z,42.35
2017-10-16T17:23:38.144Z,40.93
2017-10-16T17:26:12.585Z,41.15
2017-10-16T17:28:46.969Z,41.83
2017-10-16T17:31:21.417Z,45.22
2017-10-16T17:33:55.790Z,43.97
2017-10-16T17:36:30.164Z,43.87
2017-10-16T17:39:04.668Z,44.58
2017-10-16T17:41:38.974Z,46.97
2017-10-16T17:44:13.436Z,52.15
2017-10-16T17:46:47.832Z,48.70
2017-10-16T17:49:22.275Z,46.75
2017-10-16T17:51:56.644Z,44.65
2017-10-16T17:54:31.873Z,47.65
2017-10-16T17:57:06.224Z,48.78
2017-10-16T17:59:41.411Z,47.10
2017-10-16T18:02:15.992Z,44.58
2017-10-16T18:04:51.505Z,45.88
2017-10-16T18:07:26.056Z,52.20
2017-10-16T18:10:00.651Z,47.13
2017-10-16T18:12:35.069Z,48.83
2017-10-16T18:15:09.446Z,53.08
2017-10-16T18:17:43.991Z,56.30
2017-10-16T18:20:18.580Z,46.05
2017-10-16T18:22:53.321Z,44.83
2017-10-16T18:25:28.020Z,48.28
2017-10-16T18:28:02.870Z,44.13
2017-10-16T18:30:37.720Z,42.80
2017-10-16T18:33:13.401Z,39.85
2017-10-16T18:35:49.131Z,39.53
2017-10-16T18:38:24.219Z,42.97
2017-10-16T18:40:59.918Z,39.72
2017-10-16T18:43:35.365Z,42.50
2017-10-16T18:46:10.158Z,43.50
2017-10-16T18:48:46.016Z,41.95
2017-10-16T18:51:21.630Z,41.22
2017-10-16T18:53:57.194Z,41.50
2017-10-16T18:56:32.948Z,41.88
2017-10-16T18:59:08.032Z,38.65
2017-10-16T19:01:43.713Z,40.65
2017-10-16T19:04:19.518Z,45.80
2017-10-16T19:06:54.484Z,40.63
2017-10-16T19:09:29.582Z,39.08
2017-10-16T19:12:04.621Z,40.50
2017-10-16T19:14:39.950Z,41.30
2017-10-16T19:17:14.790Z,40.45
2017-10-16T19:19:50.039Z,38.58
2017-10-16T19:22:24.944Z,42.20
2017-10-16T19:24:59.986Z,39.85
2017-10-16T19:27:35.115Z,43.45
2017-10-16T19:30:10.192Z,43.15
2017-10-16T19:32:45.096Z,41.25
2017-10-16T19:35:20.202Z,37.92
2017-10-16T19:37:55.223Z,37.75
2017-10-16T19:40:30.985Z,38.13
2017-10-16T19:43:05.895Z,37.22
2017-10-16T19:45:40.829Z,38.25
2017-10-16T19:48:15.986Z,39.80
2017-10-16T19:50:51.015Z,38.40
2017-10-16T19:53:26.972Z,36.45
2017-10-16T19:56:01.968Z,38.15
2017-10-16T19:58:36.926Z,41.10
2017-10-16T20:01:12.764Z,37.70
2017-10-16T20:03:47.647Z,38.67
2017-10-16T20:06:22.751Z,35.97
2017-10-16T20:08:57.732Z,36.83
2017-10-16T20:11:32.883Z,38.78
2017-10-16T20:14:08.737Z,35.13
2017-10-16T20:16:43.735Z,35.92
2017-10-16T20:19:19.680Z,39.55
2017-10-16T20:21:54.711Z,38.22
2017-10-16T20:24:29.763Z,36.20
2017-10-16T20:27:04.808Z,39.20
2017-10-16T20:29:39.794Z,35.58
2017-10-16T20:32:14.617Z,33.42
2017-10-16T20:34:49.154Z,35.03
2017-10-16T20:37:23.692Z,33.58
2017-10-16T20:39:58.162Z,35.50
2017-10-16T20:42:32.528Z,34.53
2017-10-16T20:45:06.900Z,31.62
2017-10-16T20:47:41.363Z,33.13
2017-10-16T20:50:15.713Z,31.17
2017-10-16T20:52:50.836Z,38.55
2017-10-16T20:55:25.193Z,32.92
2017-10-16T20:58:00.268Z,35.05
2017-10-16T21:00:34.737Z,38.75
2017-10-16T21:03:09.178Z,30.05
2017-10-16T21:05:43.648Z,30.62
2017-10-16T21:08:17.983Z,33.67
2017-10-16T21:10:53.242Z,33.00
2017-10-16T21:13:27.607Z,28.40
2017-10-16T21:16:02.899Z,37.22
2017-10-16T21:18:37.378Z,31.02
2017-10-16T21:21:11.792Z,33.53
2017-10-16T21:23:46.325Z,26.30
2017-10-16T21:26:20.801Z,34.28
2017-10-16T21:28:55.267Z,28.85
2017-10-16T21:31:29.673Z,29.58
2017-10-16T21:34:04.299Z,26.80
2017-10-16T21:36:38.783Z,26.55
2017-10-16T21:39:13.169Z,26.67
2017-10-16T21:41:47.657Z,24.37
2017-10-16T21:44:22.008Z,28.95
2017-10-16T21:46:56.543Z,30.15
2017-10-16T21:49:31.774Z,27.05
2017-10-16T21:52:06.346Z,29.73
2017-10-16T21:54:41.616Z,24.25
2017-10-16T21:57:16.136Z,25.60
2017-10-16T21:59:50.537Z,25.65
2017-10-16T22:02:25.017Z,23.35
2017-10-16T22:04:59.440Z,27.50
2017-10-16T22:07:34.008Z,23.12
2017-10-16T22:10:08.492Z,26.73
2017-10-16T22:12:43.780Z,25.35
2017-10-16T22:15:18.285Z,24.85
2017-10-16T22:17:53.691Z,23.42
2017-10-16T22:20:28.196Z,24.60
2017-10-16T22:23:02.662Z,24.17
2017-10-16T22:25:37.088Z,23.77
2017-10-16T22:28:12.385Z,30.58
2017-10-16T22:30:46.856Z,25.80
2017-10-16T22:33:21.265Z,22.42
2017-10-16T22:35:55.645Z,23.80
2017-10-16T22:38:30.921Z,32.13
2017-10-16T22:41:05.253Z,23.08
2017-10-16T22:43:39.717Z,25.75
2017-10-16T22:46:15.201Z,23.80
2017-10-16T22:48:51.428Z,25.20
2017-10-16T22:51:26.397Z,22.83
2017-10-16T22:54:16.529Z,22.60
2017-10-16T22:56:51.016Z,24.23
2017-10-16T22:59:25.547Z,22.05
2017-10-16T23:01:59.917Z,22.98
2017-10-16T23:04:34.495Z,22.70
2017-10-16T23:07:08.980Z,21.80
2017-10-16T23:09:43.603Z,26.00
2017-10-16T23:12:19.188Z,22.05
2017-10-16T23:14:53.536Z,20.62
2017-10-16T23:17:27.914Z,21.67
2017-10-16T23:20:02.487Z,23.27
2017-10-16T23:22:36.943Z,18.70
2017-10-16T23:25:11.401Z,20.80
2017-10-16T23:27:45.810Z,28.27
2017-10-16T23:30:20.244Z,19.05
2017-10-16T23:32:54.792Z,19.45
2017-10-16T23:35:29.267Z,18.45
2017-10-16T23:38:03.647Z,18.52
2017-10-16T23:40:38.192Z,19.08
2017-10-16T23:43:12.673Z,18.77
2017-10-16T23:45:47.776Z,19.95
2017-10-16T23:48:22.308Z,18.80
2017-10-16T23:50:56.720Z,19.98
2017-10-16T23:53:31.262Z,19.10
2017-10-16T23:56:05.614Z,16.55
2017-10-16T23:58:39.958Z,16.83
